createdAt,value
2022-12-18T00:01:20.735Z,30.36
2022-12-18T00:03:47.882Z,30.42
2022-12-18T00:06:15.522Z,30.35
2022-12-18T00:08:43.386Z,30.51
2022-12-18T00:11:13.229Z,30.37
2022-12-18T00:13:40.847Z,30.32
2022-12-18T00:16:11.172Z,30.26
2022-12-18T00:18:38.361Z,30.34
2022-12-18T00:21:08.340Z,30.39
2022-12-18T00:23:36.524Z,30.33
2022-12-18T00:26:06.182Z,30.31
2022-12-18T00:28:33.199Z,30.24
2022-12-18T00:31:04.510Z,30.24
2022-12-18T00:33:31.230Z,30.26
2022-12-18T00:36:05.455Z,30.39
2022-12-18T00:38:32.567Z,30.33
2022-12-18T00:40:59.202Z,30.60
2022-12-18T00:43:25.834Z,30.41
2022-12-18T00:45:52.396Z,30.38
2022-12-18T00:48:19.269Z,30.37
2022-12-18T00:50:46.176Z,30.24
2022-12-18T00:53:13.010Z,30.40
2022-12-18T00:55:43.782Z,30.31
2022-12-18T00:58:12.201Z,30.24
2022-12-18T01:00:39.460Z,30.41
2022-12-18T01:03:06.724Z,30.22
2022-12-18T01:05:33.897Z,30.35
2022-12-18T01:08:00.992Z,30.29
2022-12-18T01:10:27.485Z,30.37
2022-12-18T01:12:53.992Z,30.30
2022-12-18T01:15:21.303Z,30.31
2022-12-18T01:17:49.150Z,30.16
2022-12-18T01:20:16.046Z,30.23
2022-12-18T01:22:42.515Z,30.27
2022-12-18T01:25:09.689Z,30.25
2022-12-18T01:27:36.224Z,30.30
2022-12-18T01:30:04.123Z,30.33
2022-12-18T01:32:32.043Z,30.29
2022-12-18T01:34:58.572Z,30.20
2022-12-18T01:37:25.390Z,30.37
2022-12-18T01:39:55.235Z,30.28
2022-12-18T01:42:22.619Z,30.38
2022-12-18T01:45:01.237Z,30.28
2022-12-18T01:47:33.642Z,30.30
2022-12-18T01:50:03.915Z,30.35
2022-12-18T01:52:33.144Z,30.29
2022-12-18T01:55:01.317Z,30.14
2022-12-18T01:57:29.167Z,30.25
2022-12-18T02:00:00.636Z,30.28
2022-12-18T02:02:29.674Z,30.26
2022-12-18T02:04:56.263Z,30.19
2022-12-18T02:07:47.747Z,30.26
2022-12-18T02:10:28.543Z,30.21
2022-12-18T02:13:09.922Z,30.18
2022-12-18T02:15:55.501Z,30.28
2022-12-18T02:18:34.772Z,30.23
2022-12-18T02:21:05.942Z,30.23
2022-12-18T02:23:54.196Z,30.29
2022-12-18T02:26:44.010Z,30.20
2022-12-18T02:29:18.979Z,30.33
2022-12-18T02:31:53.801Z,30.33
2022-12-18T02:34:23.794Z,30.34
2022-12-18T02:36:52.141Z,30.21
2022-12-18T02:39:21.801Z,30.22
2022-12-18T02:41:49.310Z,30.21
2022-12-18T02:44:15.836Z,30.12
2022-12-18T02:46:45.501Z,30.20
2022-12-18T02:49:29.947Z,30.21
2022-12-18T02:52:06.235Z,30.21
2022-12-18T02:54:44.722Z,30.22
2022-12-18T02:57:40.391Z,30.22
2022-12-18T03:00:13.200Z,30.29
2022-12-18T03:02:50.281Z,30.18
2022-12-18T03:05:21.898Z,30.40
2022-12-18T03:08:19.124Z,30.30
2022-12-18T03:10:59.168Z,30.22
2022-12-18T03:13:32.221Z,30.20
2022-12-18T03:16:00.639Z,30.23
2022-12-18T03:18:34.723Z,30.20
2022-12-18T03:21:05.780Z,30.14
2022-12-18T03:23:37.772Z,30.17
2022-12-18T03:26:10.375Z,30.13
2022-12-18T03:28:43.143Z,30.20
2022-12-18T03:31:12.408Z,30.13
2022-12-18T03:33:46.775Z,30.17
2022-12-18T03:36:13.422Z,30.20
2022-12-18T03:38:40.087Z,30.01
2022-12-18T03:41:36.667Z,30.15
2022-12-18T03:44:27.790Z,30.25
2022-12-18T03:47:26.534Z,30.22
2022-12-18T03:50:12.965Z,30.24
2022-12-18T03:52:48.187Z,30.05
2022-12-18T03:55:15.007Z,30.23
2022-12-18T03:57:45.183Z,30.24
2022-12-18T04:00:15.268Z,30.24
2022-12-18T04:02:50.472Z,30.22
2022-12-18T04:05:19.552Z,30.13
2022-12-18T04:07:48.683Z,30.10
2022-12-18T04:10:16.728Z,30.16
2022-12-18T04:12:43.655Z,30.15
2022-12-18T04:15:11.919Z,30.09
2022-12-18T04:17:39.730Z,30.23
2022-12-18T04:20:06.821Z,30.16
2022-12-18T04:22:33.254Z,30.10
2022-12-18T04:24:59.707Z,30.10
2022-12-18T04:27:26.145Z,30.13
2022-12-18T04:29:52.618Z,30.13
2022-12-18T04:32:19.182Z,30.16
2022-12-18T04:34:45.710Z,29.98
2022-12-18T04:37:12.259Z,30.15
2022-12-18T04:39:38.750Z,30.21
2022-12-18T04:42:05.549Z,30.05
2022-12-18T04:44:32.080Z,30.18
2022-12-18T04:46:58.575Z,30.18
2022-12-18T04:49:25.245Z,30.06
2022-12-18T04:51:52.581Z,30.14
2022-12-18T04:54:19.163Z,30.18
2022-12-18T04:56:45.693Z,30.15
2022-12-18T04:59:12.219Z,30.15
2022-12-18T05:01:38.856Z,30.12
2022-12-18T05:04:05.540Z,29.99
2022-12-18T05:06:32.250Z,29.83
2022-12-18T05:08:58.748Z,30.11
2022-12-18T05:11:25.250Z,29.91
2022-12-18T05:13:51.781Z,30.05
2022-12-18T05:16:18.274Z,30.01
2022-12-18T05:18:45.001Z,29.89
2022-12-18T05:21:11.451Z,30.26
2022-12-18T05:23:38.268Z,30.07
2022-12-18T05:26:07.273Z,30.07
2022-12-18T05:28:35.326Z,30.14
2022-12-18T05:31:04.106Z,30.13
2022-12-18T05:33:33.238Z,30.14
2022-12-18T05:36:05.904Z,30.01
2022-12-18T05:38:34.486Z,30.16
2022-12-18T05:41:01.141Z,30.06
2022-12-18T05:43:28.626Z,30.12
2022-12-18T05:45:55.616Z,29.99
2022-12-18T05:48:22.545Z,30.11
2022-12-18T05:50:51.140Z,30.04
2022-12-18T05:53:20.414Z,30.08
2022-12-18T05:55:47.974Z,29.99
2022-12-18T05:58:15.301Z,30.15
2022-12-18T06:00:45.084Z,29.97
2022-12-18T06:03:12.706Z,30.18
2022-12-18T06:05:41.216Z,30.10
2022-12-18T06:08:08.064Z,29.97
2022-12-18T06:10:34.721Z,29.90
2022-12-18T06:13:01.517Z,29.84
2022-12-18T06:15:28.439Z,29.86
2022-12-18T06:17:55.228Z,29.95
2022-12-18T06:20:25.326Z,29.94
2022-12-18T06:22:54.551Z,29.92
2022-12-18T06:25:21.289Z,30.00
2022-12-18T06:27:49.450Z,30.01
2022-12-18T06:30:16.427Z,29.97
2022-12-18T06:32:42.993Z,29.98
2022-12-18T06:35:09.675Z,30.05
2022-12-18T06:37:36.461Z,30.01
2022-12-18T06:40:03.252Z,29.89
2022-12-18T06:42:30.234Z,30.04
2022-12-18T06:44:56.746Z,29.94
2022-12-18T06:47:23.218Z,29.94
2022-12-18T06:49:49.665Z,29.79
2022-12-18T06:52:16.178Z,29.88
2022-12-18T06:54:42.630Z,29.81
2022-12-18T06:57:09.114Z,29.95
2022-12-18T06:59:35.630Z,29.89
2022-12-18T07:02:02.215Z,29.81
2022-12-18T07:04:32.020Z,29.85
2022-12-18T07:06:58.582Z,29.77
2022-12-18T07:09:26.126Z,29.87
2022-12-18T07:11:53.407Z,29.97
2022-12-18T07:14:20.216Z,29.78
2022-12-18T07:16:46.808Z,30.00
2022-12-18T07:19:13.302Z,29.88
2022-12-18T07:21:39.857Z,29.75
2022-12-18T07:24:07.192Z,29.83
2022-12-18T07:26:33.688Z,29.89
2022-12-18T07:29:00.367Z,29.77
2022-12-18T07:31:28.017Z,29.68
2022-12-18T07:33:55.003Z,29.75
2022-12-18T07:36:21.502Z,29.93
2022-12-18T07:38:49.334Z,29.79
2022-12-18T07:41:16.160Z,29.91
2022-12-18T07:43:43.507Z,29.83
2022-12-18T07:46:11.022Z,29.73
2022-12-18T07:48:39.744Z,29.51
2022-12-18T07:51:07.643Z,29.55
2022-12-18T07:53:35.696Z,29.67
2022-12-18T07:56:27.087Z,29.76
2022-12-18T07:58:55.081Z,29.66
2022-12-18T08:01:21.730Z,29.61
2022-12-18T08:03:48.379Z,29.73
2022-12-18T08:06:15.959Z,29.64
2022-12-18T08:08:43.361Z,29.74
2022-12-18T08:11:09.959Z,29.54
2022-12-18T08:13:36.790Z,29.60
2022-12-18T08:16:06.416Z,29.72
2022-12-18T08:18:37.720Z,29.68
2022-12-18T08:21:16.623Z,29.56
2022-12-18T08:23:44.007Z,29.75
2022-12-18T08:26:12.636Z,29.67
2022-12-18T08:28:39.128Z,29.53
2022-12-18T08:31:06.021Z,29.53
2022-12-18T08:33:33.103Z,29.75
2022-12-18T08:36:00.608Z,29.58
2022-12-18T08:38:27.375Z,29.70
2022-12-18T08:41:08.348Z,29.52
2022-12-18T08:44:01.467Z,29.67
2022-12-18T08:46:34.586Z,29.57
2022-12-18T08:49:01.129Z,29.55
2022-12-18T08:51:27.935Z,29.50
2022-12-18T08:53:54.448Z,29.49
2022-12-18T08:56:21.034Z,29.65
2022-12-18T08:58:47.694Z,29.61
2022-12-18T09:01:15.100Z,29.49
2022-12-18T09:03:42.197Z,29.46
2022-12-18T09:06:09.358Z,29.47
2022-12-18T09:08:37.874Z,29.59
2022-12-18T09:11:04.977Z,29.40
2022-12-18T09:13:31.510Z,29.40
2022-12-18T09:15:58.017Z,29.47
2022-12-18T09:18:25.273Z,29.66
2022-12-18T09:20:53.843Z,29.53
2022-12-18T09:23:21.242Z,29.59
2022-12-18T09:25:48.030Z,29.45
2022-12-18T09:28:20.163Z,29.45
2022-12-18T09:30:49.850Z,29.45
2022-12-18T09:33:17.795Z,29.45
2022-12-18T09:35:45.498Z,29.41
2022-12-18T09:38:18.950Z,29.41
2022-12-18T09:40:52.140Z,29.46
2022-12-18T09:43:28.173Z,29.33
2022-12-18T09:46:08.724Z,29.38
2022-12-18T09:48:45.826Z,29.39
2022-12-18T09:51:28.574Z,29.48
2022-12-18T09:54:00.086Z,29.43
2022-12-18T09:56:32.978Z,29.49
2022-12-18T09:59:01.298Z,29.34
2022-12-18T10:01:38.822Z,29.61
2022-12-18T10:04:10.101Z,29.45
2022-12-18T10:06:43.918Z,29.25
2022-12-18T10:09:13.467Z,29.36
2022-12-18T10:11:55.119Z,29.43
2022-12-18T10:14:30.530Z,29.26
2022-12-18T10:17:18.094Z,29.19
2022-12-18T10:19:53.745Z,29.39
2022-12-18T10:22:20.166Z,29.30
2022-12-18T10:25:03.940Z,29.31
2022-12-18T10:27:31.700Z,29.32
2022-12-18T10:30:00.044Z,29.33
2022-12-18T10:32:30.250Z,29.21
2022-12-18T10:35:00.727Z,29.33
2022-12-18T10:37:30.192Z,29.21
2022-12-18T10:40:21.854Z,29.34
2022-12-18T10:43:05.336Z,29.42
2022-12-18T10:45:32.117Z,29.39
2022-12-18T10:47:59.086Z,29.30
2022-12-18T10:50:53.943Z,29.33
2022-12-18T10:53:25.134Z,29.29
2022-12-18T10:55:54.671Z,29.21
2022-12-18T10:58:38.743Z,29.42
2022-12-18T11:01:21.203Z,29.27
2022-12-18T11:04:02.651Z,29.33
2022-12-18T11:06:30.219Z,29.34
2022-12-18T11:09:21.302Z,29.30
2022-12-18T11:11:55.383Z,29.18
2022-12-18T11:14:26.474Z,29.37
2022-12-18T11:17:24.521Z,29.26
2022-12-18T11:19:42.277Z,29.20
2022-12-18T11:22:25.455Z,29.11
2022-12-18T11:28:05.800Z,29.18
2022-12-18T11:30:36.369Z,29.12
2022-12-18T11:33:33.679Z,29.17
2022-12-18T11:36:05.887Z,29.16
2022-12-18T11:38:45.261Z,29.28
2022-12-18T11:41:44.657Z,29.29
2022-12-18T11:44:16.718Z,29.18
2022-12-18T11:46:52.699Z,29.24
2022-12-18T11:49:25.590Z,29.18
2022-12-18T11:51:58.580Z,29.06
2022-12-18T11:54:25.117Z,29.21
2022-12-18T11:57:30.332Z,29.16
2022-12-18T12:00:13.022Z,29.17
2022-12-18T12:02:58.085Z,29.26
2022-12-18T12:05:44.638Z,29.26
2022-12-18T12:08:17.211Z,29.10
2022-12-18T12:10:43.758Z,29.30
2022-12-18T12:13:32.580Z,29.21
2022-12-18T12:16:01.731Z,29.19
2022-12-18T12:18:37.320Z,29.26
2022-12-18T12:21:30.673Z,29.25
2022-12-18T12:24:25.062Z,29.28
2022-12-18T12:27:50.482Z,29.22
2022-12-18T12:30:24.434Z,29.24
2022-12-18T12:32:56.925Z,29.17
2022-12-18T12:35:37.303Z,29.16
2022-12-18T12:38:27.482Z,29.25
2022-12-18T12:41:29.514Z,29.12
2022-12-18T12:43:58.811Z,29.09
2022-12-18T12:46:27.444Z,29.15
2022-12-18T12:48:57.747Z,28.99
2022-12-18T12:51:31.052Z,29.17
2022-12-18T12:53:59.212Z,29.09
2022-12-18T12:56:39.827Z,28.99
2022-12-18T12:59:35.595Z,29.16
2022-12-18T13:02:02.288Z,29.07
2022-12-18T13:04:53.658Z,29.09
2022-12-18T13:07:29.710Z,29.01
2022-12-18T13:10:20.857Z,28.95
2022-12-18T13:12:58.330Z,29.06
2022-12-18T13:15:44.311Z,28.96
2022-12-18T13:18:23.986Z,29.35
2022-12-18T13:21:03.058Z,29.05
2022-12-18T13:23:34.195Z,29.17
2022-12-18T13:26:28.157Z,29.04
2022-12-18T13:28:56.741Z,29.14
2022-12-18T13:31:41.867Z,28.93
2022-12-18T13:34:26.901Z,29.00
2022-12-18T13:36:57.078Z,29.06
2022-12-18T13:39:32.797Z,29.02
2022-12-18T13:42:07.017Z,29.13
2022-12-18T13:44:40.577Z,29.08
2022-12-18T13:47:27.740Z,29.11
2022-12-18T13:49:55.749Z,29.07
2022-12-18T13:52:37.963Z,28.94
2022-12-18T13:55:08.257Z,29.01
2022-12-18T13:57:36.353Z,29.05
2022-12-18T14:00:31.077Z,29.11
2022-12-18T14:02:59.407Z,29.07
2022-12-18T14:05:32.508Z,28.98
2022-12-18T14:08:14.427Z,28.99
2022-12-18T14:10:49.510Z,28.99
2022-12-18T14:13:43.075Z,29.06
2022-12-18T14:16:16.301Z,29.04
2022-12-18T14:18:50.269Z,28.94
2022-12-18T14:21:24.701Z,29.07
2022-12-18T14:24:09.748Z,29.06
2022-12-18T14:26:36.262Z,29.04
2022-12-18T14:29:24.339Z,29.03
2022-12-18T14:32:18.725Z,29.03
2022-12-18T14:34:51.962Z,29.09
2022-12-18T14:37:24.800Z,29.13
2022-12-18T14:40:07.121Z,29.31
2022-12-18T14:42:37.647Z,29.24
2022-12-18T14:45:39.076Z,29.22
2022-12-18T14:48:34.502Z,29.25
2022-12-18T14:51:19.829Z,29.15
2022-12-18T14:53:56.616Z,29.34
2022-12-18T14:56:27.398Z,29.31
2022-12-18T14:59:02.025Z,29.23
2022-12-18T15:01:34.210Z,29.40
2022-12-18T15:04:03.023Z,29.38
2022-12-18T15:06:36.252Z,29.34
2022-12-18T15:09:07.310Z,29.33
2022-12-18T15:11:41.688Z,29.41
2022-12-18T15:14:43.749Z,29.47
2022-12-18T15:17:22.448Z,29.45
2022-12-18T15:19:53.918Z,29.52
2022-12-18T15:22:31.482Z,29.49
2022-12-18T15:25:00.066Z,29.56
2022-12-18T15:27:36.883Z,29.44
2022-12-18T15:30:06.349Z,29.56
2022-12-18T15:32:32.839Z,29.53
2022-12-18T15:35:10.185Z,29.50
2022-12-18T15:37:36.643Z,29.49
2022-12-18T15:40:03.528Z,29.28
2022-12-18T15:42:49.709Z,29.56
2022-12-18T15:45:16.708Z,29.41
2022-12-18T15:47:45.272Z,29.56
2022-12-18T15:50:11.896Z,29.54
2022-12-18T15:52:44.932Z,29.37
2022-12-18T15:55:35.513Z,29.42
2022-12-18T15:58:03.230Z,29.46
2022-12-18T16:00:29.895Z,29.49
2022-12-18T16:02:56.638Z,29.51
2022-12-18T16:05:24.324Z,29.73
2022-12-18T16:07:50.794Z,29.72
2022-12-18T16:10:17.472Z,29.87
2022-12-18T16:12:44.419Z,29.57
2022-12-18T16:15:15.865Z,29.72
2022-12-18T16:17:44.884Z,29.66
2022-12-18T16:20:19.187Z,29.60
2022-12-18T16:22:47.230Z,29.75
2022-12-18T16:25:18.499Z,29.47
2022-12-18T16:27:45.054Z,29.64
2022-12-18T16:30:20.785Z,29.65
2022-12-18T16:32:47.659Z,29.76
2022-12-18T16:35:16.193Z,29.59
2022-12-18T16:37:43.573Z,29.62
2022-12-18T16:40:12.822Z,29.57
2022-12-18T16:42:40.827Z,29.55
2022-12-18T16:45:09.597Z,29.68
2022-12-18T16:47:36.254Z,29.62
2022-12-18T16:50:02.911Z,29.64
2022-12-18T16:52:30.302Z,29.48
2022-12-18T16:54:57.284Z,29.65
2022-12-18T16:57:25.251Z,29.54
2022-12-18T16:59:52.418Z,29.61
2022-12-18T17:02:24.312Z,29.57
2022-12-18T17:04:54.080Z,29.78
2022-12-18T17:07:20.839Z,29.65
2022-12-18T17:09:47.409Z,29.55
2022-12-18T17:12:13.914Z,29.58
2022-12-18T17:14:40.423Z,29.82
2022-12-18T17:17:23.816Z,29.59
2022-12-18T17:19:51.628Z,29.70
2022-12-18T17:22:18.347Z,29.64
2022-12-18T17:24:44.899Z,29.56
2022-12-18T17:27:11.694Z,29.67
2022-12-18T17:29:41.286Z,29.51
2022-12-18T17:32:11.861Z,29.59
2022-12-18T17:34:38.787Z,29.52
2022-12-18T17:37:05.418Z,29.49
2022-12-18T17:39:32.422Z,29.48
2022-12-18T17:41:59.513Z,29.57
2022-12-18T17:44:26.015Z,29.57
2022-12-18T17:46:52.691Z,29.63
2022-12-18T17:49:19.276Z,29.61
2022-12-18T17:51:45.768Z,29.60
2022-12-18T17:54:12.329Z,29.67
2022-12-18T17:56:39.503Z,29.61
2022-12-18T17:59:07.251Z,29.56
2022-12-18T18:01:36.363Z,29.47
2022-12-18T18:04:05.518Z,29.61
2022-12-18T18:06:32.084Z,29.69
2022-12-18T18:09:00.988Z,29.65
2022-12-18T18:11:46.458Z,29.69
2022-12-18T18:14:17.666Z,29.64
2022-12-18T18:16:47.052Z,29.65
2022-12-18T18:19:17.009Z,29.62
2022-12-18T18:21:45.320Z,29.70
2022-12-18T18:24:15.692Z,29.70
2022-12-18T18:26:42.858Z,29.78
2022-12-18T18:29:13.018Z,29.72
2022-12-18T18:31:41.301Z,29.80
2022-12-18T18:34:09.050Z,29.80
2022-12-18T18:36:35.596Z,29.95
2022-12-18T18:39:02.363Z,29.64
2022-12-18T18:41:30.529Z,29.70
2022-12-18T18:43:58.455Z,29.60
2022-12-18T18:46:25.731Z,29.84
2022-12-18T18:48:52.544Z,29.83
2022-12-18T18:51:21.429Z,29.85
2022-12-18T18:53:51.003Z,29.98
2022-12-18T18:56:45.321Z,29.90
2022-12-18T18:59:06.313Z,29.87
2022-12-18T19:01:33.610Z,29.77
2022-12-18T19:04:00.803Z,29.67
2022-12-18T19:06:29.016Z,29.75
2022-12-18T19:08:58.201Z,29.71
2022-12-18T19:11:44.296Z,29.78
2022-12-18T19:14:12.950Z,29.78
2022-12-18T19:16:40.720Z,29.85
2022-12-18T19:19:07.819Z,29.76
2022-12-18T19:21:35.654Z,29.93
2022-12-18T19:24:02.852Z,29.93
2022-12-18T19:26:29.720Z,29.95
2022-12-18T19:29:04.634Z,30.01
2022-12-18T19:31:35.508Z,29.93
2022-12-18T19:34:03.986Z,29.96
2022-12-18T19:36:32.205Z,30.17
2022-12-18T19:39:00.989Z,30.11
2022-12-18T19:41:31.145Z,30.07
2022-12-18T19:43:58.504Z,29.96
2022-12-18T19:46:25.385Z,30.09
2022-12-18T19:48:52.621Z,30.19
2022-12-18T19:51:25.157Z,30.06
2022-12-18T19:53:58.063Z,30.21
2022-12-18T19:56:28.246Z,30.19
2022-12-18T19:58:55.284Z,30.22
2022-12-18T20:01:23.685Z,30.04
2022-12-18T20:03:52.559Z,30.13
2022-12-18T20:06:31.854Z,30.00
2022-12-18T20:09:02.272Z,30.43
2022-12-18T20:11:33.559Z,30.26
2022-12-18T20:14:05.164Z,30.26
2022-12-18T20:16:31.727Z,30.08
2022-12-18T20:18:58.377Z,30.58
2022-12-18T20:21:25.425Z,30.34
2022-12-18T20:23:52.040Z,30.45
2022-12-18T20:26:19.531Z,30.23
2022-12-18T20:28:46.127Z,30.25
2022-12-18T20:31:14.190Z,30.23
2022-12-18T20:33:42.407Z,30.51
2022-12-18T20:36:14.272Z,30.46
2022-12-18T20:38:42.692Z,30.30
2022-12-18T20:41:17.023Z,30.36
2022-12-18T20:43:44.296Z,30.39
2022-12-18T20:46:14.768Z,30.39
2022-12-18T20:48:43.179Z,30.45
2022-12-18T20:51:15.564Z,30.36
2022-12-18T20:53:42.979Z,30.50
2022-12-18T20:56:21.257Z,30.47
2022-12-18T20:58:49.682Z,30.60
2022-12-18T21:01:18.811Z,30.56
2022-12-18T21:03:46.258Z,30.47
2022-12-18T21:06:15.342Z,30.66
2022-12-18T21:08:42.394Z,30.66
2022-12-18T21:11:35.941Z,30.62
2022-12-18T21:14:03.988Z,30.53
2022-12-18T21:16:30.634Z,30.63
2022-12-18T21:18:57.231Z,30.69
2022-12-18T21:21:26.539Z,30.60
2022-12-18T21:23:53.257Z,30.69
2022-12-18T21:26:28.121Z,30.60
2022-12-18T21:28:56.943Z,30.70
2022-12-18T21:31:25.220Z,30.87
2022-12-18T21:33:51.890Z,30.91
2022-12-18T21:36:20.909Z,30.76
2022-12-18T21:38:47.445Z,30.79
2022-12-18T21:41:41.736Z,30.82
2022-12-18T21:44:13.220Z,30.94
2022-12-18T21:46:43.285Z,30.79
2022-12-18T21:49:11.108Z,30.92
2022-12-18T21:51:38.887Z,30.95
2022-12-18T21:54:05.426Z,30.93
2022-12-18T21:56:48.431Z,30.90
2022-12-18T21:59:26.030Z,30.85
2022-12-18T22:01:53.896Z,30.95
2022-12-18T22:04:21.661Z,30.88
2022-12-18T22:06:48.973Z,30.84
2022-12-18T22:09:18.646Z,30.89
2022-12-18T22:11:45.170Z,30.96
2022-12-18T22:14:12.685Z,31.08
2022-12-18T22:16:39.519Z,30.86
2022-12-18T22:19:06.544Z,31.17
2022-12-18T22:21:37.803Z,31.03
2022-12-18T22:24:07.227Z,31.07
2022-12-18T22:26:40.192Z,30.96
2022-12-18T22:29:26.475Z,30.89
2022-12-18T22:31:53.037Z,31.10
2022-12-18T22:34:22.849Z,31.15
2022-12-18T22:36:50.410Z,31.12
2022-12-18T22:39:25.564Z,31.20
2022-12-18T22:41:52.658Z,31.03
2022-12-18T22:44:19.676Z,31.17
2022-12-18T22:46:49.395Z,31.16
2022-12-18T22:49:32.458Z,31.09
2022-12-18T22:52:01.198Z,31.38
2022-12-18T22:54:27.750Z,31.23
2022-12-18T22:56:54.217Z,31.30
2022-12-18T22:59:23.387Z,31.08
2022-12-18T23:01:52.978Z,31.35
2022-12-18T23:04:32.959Z,31.17
2022-12-18T23:07:04.980Z,31.17
2022-12-18T23:09:32.023Z,31.15
2022-12-18T23:11:58.515Z,31.36
2022-12-18T23:14:25.027Z,31.18
2022-12-18T23:16:52.280Z,31.32
2022-12-18T23:19:19.997Z,31.18
2022-12-18T23:21:46.999Z,31.34
2022-12-18T23:24:13.707Z,31.42
2022-12-18T23:26:40.250Z,31.32
2022-12-18T23:29:07.287Z,31.44
2022-12-18T23:31:37.495Z,31.35
2022-12-18T23:34:05.818Z,31.37
2022-12-18T23:36:37.653Z,31.24
2022-12-18T23:39:15.411Z,31.60
2022-12-18T23:41:56.297Z,31.34
2022-12-18T23:44:22.856Z,31.36
2022-12-18T23:46:49.380Z,31.37
2022-12-18T23:49:16.049Z,31.51
2022-12-18T23:51:42.520Z,31.46
2022-12-18T23:54:10.364Z,31.43
2022-12-18T23:56:36.893Z,31.45
2022-12-18T23:59:03.533Z,31.72
